Alpine, California
Current Conditions -  °F | °C
As of 3:55 PM on Wednesday 22 Oct 2014 (Local Time) from KSEE Reporting Station
Clear Clear  
Wind Chill: 82°   Ceiling: Unl
Heat Index: 82°   Visibility: 10mi
Dew Point: 52°   Wind: 7mph
Humidity: 35%   Direction: 290°WNW
Pressure: 29.91"   Gusts: NA
Location:  32.83°N, 116.75°W
Report Text: KSEE 222255Z AUTO 29006KT 10SM CLR 28/11 A2991 RMK AO2
Loading
Personal Weather Stations






























Interactive Weather Map
Tropical Storm Tracking
New forecast layout! Learn more

10-Day Weather Forecast

Advertisements
Track Severe Weather on mobile